CMP453 SKCG-MPTO
Flight info
| Callsign | CMP453 |
|---|---|
| Flight time | 0h 46m |
| Altitude | 36000 |
| Route | ESKAB2A ESKAB DCT BOGAL DCT PONPO MEVID1A |
| Aircraft | B737/M-SDE2E3FGHIRWXY/LB1 |
Departure
| Time | 2026-04-22 02:46 |
|---|---|
| Airport | Rafael Nuñez International Airport (SKCG) |
Arrival
| Time | 2026-04-22 03:32 |
|---|---|
| Airport | Tocumen International Airport (MPTO) |
| Time | Latitude | Longitude | Altitude | Speed | Heading |
|---|---|---|---|---|---|
| 2026-04-22 02:26 | 10.44642 | -75.51559 | 13 ft | 0 kts | 272° |
| 2026-04-22 02:37 | 10.44642 | -75.51541 | 13 ft | 4 kts | 272° |
| 2026-04-22 02:37 | 10.44641 | -75.51513 | 13 ft | 4 kts | 272° |
| 2026-04-22 02:37 | 10.44640 | -75.51492 | 13 ft | 4 kts | 274° |
| 2026-04-22 02:38 | 10.44637 | -75.51465 | 14 ft | 4 kts | 283° |
| 2026-04-22 02:38 | 10.44630 | -75.51438 | 17 ft | 4 kts | 282° |
| 2026-04-22 02:38 | 10.44628 | -75.51423 | 15 ft | 3 kts | 272° |
| 2026-04-22 02:38 | 10.44627 | -75.51449 | 16 ft | 4 kts | 258° |
| 2026-04-22 02:39 | 10.44609 | -75.51463 | 15 ft | 4 kts | 198° |
| 2026-04-22 02:39 | 10.44583 | -75.51464 | 13 ft | 4 kts | 181° |
| 2026-04-22 02:39 | 10.44558 | -75.51458 | 13 ft | 4 kts | 149° |
| 2026-04-22 02:39 | 10.44548 | -75.51436 | 14 ft | 4 kts | 102° |
| 2026-04-22 02:40 | 10.44547 | -75.51410 | 13 ft | 4 kts | 94° |
| 2026-04-22 02:40 | 10.44546 | -75.51396 | 13 ft | 0 kts | 91° |
| 2026-04-22 02:42 | 10.44546 | -75.51389 | 13 ft | 2 kts | 91° |
| 2026-04-22 02:42 | 10.44545 | -75.51366 | 14 ft | 5 kts | 91° |
| 2026-04-22 02:42 | 10.44534 | -75.51306 | 14 ft | 14 kts | 123° |
| 2026-04-22 02:43 | 10.44412 | -75.51284 | 14 ft | 24 kts | 181° |
| 2026-04-22 02:43 | 10.44223 | -75.51291 | 11 ft | 30 kts | 182° |
| 2026-04-22 02:43 | 10.44015 | -75.51299 | 12 ft | 29 kts | 182° |
| 2026-04-22 02:43 | 10.43817 | -75.51306 | 12 ft | 28 kts | 182° |
| 2026-04-22 02:44 | 10.43632 | -75.51317 | 14 ft | 26 kts | 182° |
| 2026-04-22 02:44 | 10.43459 | -75.51323 | 16 ft | 24 kts | 182° |
| 2026-04-22 02:44 | 10.43276 | -75.51330 | 16 ft | 20 kts | 181° |
| 2026-04-22 02:44 | 10.43166 | -75.51250 | 14 ft | 21 kts | 138° |
| 2026-04-22 02:45 | 10.43072 | -75.51281 | 15 ft | 14 kts | 271° |
| 2026-04-22 02:45 | 10.43134 | -75.51339 | 15 ft | 20 kts | 0° |
| 2026-04-22 02:45 | 10.43486 | -75.51324 | 17 ft | 83 kts | 2° |
| 2026-04-22 02:45 | 10.44260 | -75.51291 | 13 ft | 136 kts | 2° |
| 2026-04-22 02:46 | 10.45309 | -75.51257 | 236 ft | 157 kts | 2° |
| 2026-04-22 02:46 | 10.46408 | -75.51209 | 771 ft | 160 kts | 3° |
| 2026-04-22 02:46 | 10.47587 | -75.51157 | 1146 ft | 175 kts | 5° |
| 2026-04-22 02:46 | 10.48810 | -75.51102 | 1708 ft | 180 kts | 5° |
| 2026-04-22 02:47 | 10.50152 | -75.51259 | 1966 ft | 213 kts | 338° |
| 2026-04-22 02:47 | 10.51323 | -75.52325 | 2209 ft | 247 kts | 302° |
| 2026-04-22 02:47 | 10.51766 | -75.54094 | 2629 ft | 272 kts | 269° |
| 2026-04-22 02:47 | 10.51227 | -75.55936 | 3440 ft | 278 kts | 237° |
| 2026-04-22 02:48 | 10.49833 | -75.57249 | 4371 ft | 276 kts | 213° |
| 2026-04-22 02:48 | 10.48210 | -75.58316 | 5178 ft | 279 kts | 213° |
| 2026-04-22 02:48 | 10.46798 | -75.59682 | 5905 ft | 286 kts | 240° |
| 2026-04-22 02:48 | 10.45922 | -75.61504 | 6689 ft | 292 kts | 245° |
| 2026-04-22 02:49 | 10.45104 | -75.63362 | 7585 ft | 290 kts | 246° |
| 2026-04-22 02:49 | 10.44284 | -75.65242 | 8500 ft | 293 kts | 246° |
| 2026-04-22 02:49 | 10.43450 | -75.67141 | 9441 ft | 295 kts | 246° |
| 2026-04-22 02:49 | 10.42601 | -75.69057 | 10304 ft | 300 kts | 246° |
| 2026-04-22 02:50 | 10.41708 | -75.71059 | 10654 ft | 325 kts | 245° |
| 2026-04-22 02:50 | 10.40734 | -75.73228 | 10918 ft | 348 kts | 245° |
| 2026-04-22 02:50 | 10.39709 | -75.75497 | 11565 ft | 357 kts | 245° |
| 2026-04-22 02:50 | 10.38667 | -75.77796 | 12378 ft | 360 kts | 245° |
| 2026-04-22 02:51 | 10.37614 | -75.80112 | 13199 ft | 363 kts | 245° |
| 2026-04-22 02:51 | 10.36548 | -75.82454 | 13982 ft | 367 kts | 245° |
| 2026-04-22 02:51 | 10.35471 | -75.84818 | 14685 ft | 371 kts | 245° |
| 2026-04-22 02:51 | 10.34379 | -75.87212 | 15353 ft | 377 kts | 245° |
| 2026-04-22 02:52 | 10.33269 | -75.89644 | 16022 ft | 382 kts | 245° |
| 2026-04-22 02:52 | 10.32145 | -75.92107 | 16711 ft | 386 kts | 245° |
| 2026-04-22 02:52 | 10.31009 | -75.94596 | 17368 ft | 392 kts | 245° |
| 2026-04-22 02:52 | 10.29853 | -75.97126 | 17979 ft | 398 kts | 245° |
| 2026-04-22 02:53 | 10.28684 | -75.99684 | 18603 ft | 401 kts | 245° |
| 2026-04-22 02:53 | 10.27507 | -76.02260 | 19168 ft | 405 kts | 245° |
| 2026-04-22 02:53 | 10.26314 | -76.04872 | 19674 ft | 410 kts | 244° |
| 2026-04-22 02:53 | 10.25106 | -76.07512 | 20211 ft | 414 kts | 244° |
| 2026-04-22 02:54 | 10.23890 | -76.10171 | 20760 ft | 418 kts | 244° |
| 2026-04-22 02:54 | 10.22658 | -76.12866 | 21222 ft | 423 kts | 244° |
| 2026-04-22 02:54 | 10.21417 | -76.15577 | 21817 ft | 424 kts | 244° |
| 2026-04-22 02:54 | 10.20168 | -76.18305 | 22283 ft | 429 kts | 244° |
| 2026-04-22 02:55 | 10.18899 | -76.21077 | 22689 ft | 435 kts | 244° |
| 2026-04-22 02:55 | 10.17625 | -76.23860 | 23319 ft | 435 kts | 244° |
| 2026-04-22 02:55 | 10.16344 | -76.26656 | 23725 ft | 439 kts | 244° |
| 2026-04-22 02:55 | 10.15049 | -76.29485 | 24106 ft | 442 kts | 244° |
| 2026-04-22 02:56 | 10.13756 | -76.32306 | 24665 ft | 440 kts | 244° |
| 2026-04-22 02:56 | 10.12465 | -76.35123 | 25088 ft | 442 kts | 244° |
| 2026-04-22 02:56 | 10.11165 | -76.37959 | 25476 ft | 444 kts | 244° |
| 2026-04-22 02:56 | 10.09861 | -76.40801 | 25933 ft | 444 kts | 244° |
| 2026-04-22 02:57 | 10.08558 | -76.43643 | 26377 ft | 445 kts | 244° |
| 2026-04-22 02:57 | 10.07251 | -76.46491 | 26804 ft | 446 kts | 244° |
| 2026-04-22 02:57 | 10.05942 | -76.49343 | 27208 ft | 447 kts | 244° |
| 2026-04-22 02:57 | 10.04646 | -76.52166 | 27632 ft | 447 kts | 243° |
| 2026-04-22 02:58 | 10.03330 | -76.55032 | 27994 ft | 450 kts | 243° |
| 2026-04-22 02:58 | 10.02007 | -76.57912 | 28366 ft | 451 kts | 243° |
| 2026-04-22 02:58 | 10.00682 | -76.60795 | 28797 ft | 451 kts | 243° |
| 2026-04-22 02:58 | 9.99354 | -76.63685 | 29121 ft | 453 kts | 243° |
| 2026-04-22 02:59 | 9.98018 | -76.66590 | 29465 ft | 455 kts | 243° |
| 2026-04-22 02:59 | 9.96682 | -76.69495 | 29864 ft | 455 kts | 244° |
| 2026-04-22 02:59 | 9.95348 | -76.72397 | 30280 ft | 453 kts | 243° |
| 2026-04-22 02:59 | 9.94021 | -76.75282 | 30779 ft | 449 kts | 243° |
| 2026-04-22 03:00 | 9.92703 | -76.78147 | 31228 ft | 448 kts | 243° |
| 2026-04-22 03:00 | 9.91386 | -76.81008 | 31611 ft | 447 kts | 243° |
| 2026-04-22 03:00 | 9.90070 | -76.83865 | 32014 ft | 447 kts | 243° |
| 2026-04-22 03:00 | 9.88757 | -76.86716 | 32465 ft | 445 kts | 243° |
| 2026-04-22 03:01 | 9.87450 | -76.89554 | 32949 ft | 443 kts | 243° |
| 2026-04-22 03:01 | 9.86148 | -76.92379 | 33422 ft | 441 kts | 243° |
| 2026-04-22 03:01 | 9.84851 | -76.95193 | 33902 ft | 440 kts | 243° |
| 2026-04-22 03:02 | 9.82249 | -77.00835 | 33987 ft | 441 kts | 243° |
| 2026-04-22 03:02 | 9.79660 | -77.06447 | 33986 ft | 439 kts | 243° |
| 2026-04-22 03:03 | 9.77075 | -77.12046 | 33981 ft | 438 kts | 243° |
| 2026-04-22 03:03 | 9.74491 | -77.17642 | 33992 ft | 438 kts | 243° |
| 2026-04-22 03:04 | 9.71906 | -77.23237 | 33990 ft | 438 kts | 243° |
| 2026-04-22 03:04 | 9.69318 | -77.28834 | 33988 ft | 439 kts | 243° |
| 2026-04-22 03:05 | 9.66728 | -77.34433 | 33986 ft | 439 kts | 243° |
| 2026-04-22 03:05 | 9.64134 | -77.40040 | 33986 ft | 439 kts | 243° |
| 2026-04-22 03:06 | 9.61537 | -77.45648 | 33992 ft | 440 kts | 243° |
| 2026-04-22 03:06 | 9.58935 | -77.51265 | 33983 ft | 441 kts | 243° |
| 2026-04-22 03:07 | 9.56347 | -77.56851 | 33991 ft | 441 kts | 243° |
| 2026-04-22 03:07 | 9.53734 | -77.62486 | 33989 ft | 442 kts | 243° |
| 2026-04-22 03:08 | 9.51116 | -77.68129 | 33996 ft | 443 kts | 243° |
| 2026-04-22 03:08 | 9.48493 | -77.73781 | 33991 ft | 444 kts | 243° |
| 2026-04-22 03:09 | 9.45864 | -77.79442 | 33990 ft | 444 kts | 243° |
| 2026-04-22 03:09 | 9.43232 | -77.85108 | 33997 ft | 445 kts | 243° |
| 2026-04-22 03:10 | 9.40597 | -77.90775 | 33995 ft | 445 kts | 243° |
| 2026-04-22 03:10 | 9.37961 | -77.96445 | 34000 ft | 445 kts | 242° |
| 2026-04-22 03:11 | 9.35324 | -78.02114 | 33999 ft | 445 kts | 242° |
| 2026-04-22 03:11 | 9.33998 | -78.04962 | 33476 ft | 450 kts | 243° |
| 2026-04-22 03:11 | 9.32666 | -78.07822 | 32838 ft | 448 kts | 243° |
| 2026-04-22 03:11 | 9.31336 | -78.10680 | 32150 ft | 447 kts | 243° |
| 2026-04-22 03:12 | 9.30037 | -78.13471 | 31652 ft | 442 kts | 243° |
| 2026-04-22 03:12 | 9.27481 | -78.19072 | 30582 ft | 436 kts | 249° |
| 2026-04-22 03:12 | 9.26874 | -78.22067 | 30060 ft | 436 kts | 265° |
| 2026-04-22 03:13 | 9.26796 | -78.25124 | 29488 ft | 433 kts | 268° |
| 2026-04-22 03:13 | 9.26542 | -78.28140 | 28805 ft | 428 kts | 257° |
| 2026-04-22 03:13 | 9.25754 | -78.31029 | 28133 ft | 424 kts | 247° |
| 2026-04-22 03:13 | 9.24650 | -78.33787 | 27473 ft | 422 kts | 246° |
| 2026-04-22 03:14 | 9.23506 | -78.36565 | 26230 ft | 435 kts | 246° |
| 2026-04-22 03:14 | 9.22321 | -78.39431 | 24979 ft | 448 kts | 246° |
| 2026-04-22 03:14 | 9.21110 | -78.42377 | 23799 ft | 458 kts | 247° |
| 2026-04-22 03:14 | 9.19885 | -78.45380 | 22636 ft | 463 kts | 247° |
| 2026-04-22 03:15 | 9.18672 | -78.48379 | 21860 ft | 457 kts | 247° |
| 2026-04-22 03:15 | 9.17484 | -78.51325 | 21231 ft | 448 kts | 247° |
| 2026-04-22 03:15 | 9.16321 | -78.54216 | 20542 ft | 440 kts | 247° |
| 2026-04-22 03:15 | 9.15173 | -78.57070 | 19813 ft | 435 kts | 248° |
| 2026-04-22 03:16 | 9.14038 | -78.59891 | 19100 ft | 431 kts | 248° |
| 2026-04-22 03:16 | 9.13293 | -78.61744 | 18635 ft | 427 kts | 248° |
| 2026-04-22 03:16 | 9.11804 | -78.65439 | 17651 ft | 421 kts | 248° |
| 2026-04-22 03:16 | 9.11075 | -78.67248 | 17141 ft | 418 kts | 247° |
| 2026-04-22 03:17 | 9.09984 | -78.69956 | 16372 ft | 413 kts | 248° |
| 2026-04-22 03:17 | 9.08555 | -78.73500 | 15383 ft | 408 kts | 248° |
| 2026-04-22 03:17 | 9.07832 | -78.75291 | 14898 ft | 406 kts | 248° |
| 2026-04-22 03:17 | 9.06771 | -78.77922 | 14210 ft | 402 kts | 248° |
| 2026-04-22 03:18 | 9.05721 | -78.80525 | 13499 ft | 398 kts | 248° |
| 2026-04-22 03:18 | 9.04680 | -78.83103 | 12765 ft | 394 kts | 248° |
| 2026-04-22 03:18 | 9.03649 | -78.85657 | 12060 ft | 390 kts | 248° |
| 2026-04-22 03:18 | 9.02629 | -78.88181 | 11379 ft | 385 kts | 248° |
| 2026-04-22 03:19 | 9.01621 | -78.90677 | 10714 ft | 382 kts | 248° |
| 2026-04-22 03:19 | 9.00630 | -78.93131 | 10390 ft | 368 kts | 248° |
| 2026-04-22 03:19 | 8.99681 | -78.95479 | 10147 ft | 354 kts | 248° |
| 2026-04-22 03:19 | 8.98765 | -78.97744 | 9907 ft | 342 kts | 249° |
| 2026-04-22 03:20 | 8.97881 | -78.99930 | 9642 ft | 330 kts | 249° |
| 2026-04-22 03:20 | 8.97036 | -79.02019 | 9385 ft | 321 kts | 249° |
| 2026-04-22 03:20 | 8.96199 | -79.04091 | 9133 ft | 316 kts | 249° |
| 2026-04-22 03:20 | 8.95380 | -79.06118 | 8871 ft | 307 kts | 249° |
| 2026-04-22 03:21 | 8.94580 | -79.08096 | 8620 ft | 300 kts | 249° |
| 2026-04-22 03:21 | 8.93800 | -79.10024 | 8366 ft | 293 kts | 249° |
| 2026-04-22 03:21 | 8.93036 | -79.11913 | 8115 ft | 287 kts | 249° |
| 2026-04-22 03:21 | 8.92286 | -79.13765 | 7858 ft | 283 kts | 249° |
| 2026-04-22 03:22 | 8.91543 | -79.15603 | 7630 ft | 282 kts | 249° |
| 2026-04-22 03:22 | 8.90799 | -79.17441 | 7398 ft | 282 kts | 249° |
| 2026-04-22 03:22 | 8.90055 | -79.19278 | 7159 ft | 282 kts | 249° |
| 2026-04-22 03:22 | 8.89313 | -79.21111 | 6927 ft | 282 kts | 249° |
| 2026-04-22 03:23 | 8.88572 | -79.22942 | 6698 ft | 281 kts | 249° |
| 2026-04-22 03:23 | 8.87832 | -79.24768 | 6470 ft | 280 kts | 249° |
| 2026-04-22 03:23 | 8.87095 | -79.26588 | 6231 ft | 279 kts | 249° |
| 2026-04-22 03:23 | 8.86365 | -79.28389 | 5970 ft | 274 kts | 249° |
| 2026-04-22 03:24 | 8.85644 | -79.30169 | 5643 ft | 273 kts | 249° |
| 2026-04-22 03:24 | 8.84927 | -79.31939 | 5325 ft | 271 kts | 249° |
| 2026-04-22 03:24 | 8.84214 | -79.33699 | 4999 ft | 270 kts | 249° |
| 2026-04-22 03:24 | 8.83503 | -79.35451 | 4678 ft | 269 kts | 249° |
| 2026-04-22 03:25 | 8.82794 | -79.37201 | 4331 ft | 269 kts | 249° |
| 2026-04-22 03:25 | 8.82088 | -79.38942 | 4065 ft | 265 kts | 251° |
| 2026-04-22 03:25 | 8.81787 | -79.40709 | 3921 ft | 250 kts | 279° |
| 2026-04-22 03:25 | 8.82295 | -79.42348 | 3660 ft | 241 kts | 302° |
| 2026-04-22 03:26 | 8.83244 | -79.43693 | 3451 ft | 228 kts | 313° |
| 2026-04-22 03:26 | 8.84233 | -79.44887 | 3314 ft | 215 kts | 314° |
| 2026-04-22 03:26 | 8.85166 | -79.46006 | 3202 ft | 201 kts | 314° |
| 2026-04-22 03:26 | 8.86128 | -79.46935 | 3092 ft | 181 kts | 338° |
| 2026-04-22 03:27 | 8.87303 | -79.47200 | 3044 ft | 174 kts | 6° |
| 2026-04-22 03:27 | 8.88471 | -79.46910 | 2903 ft | 173 kts | 20° |
| 2026-04-22 03:27 | 8.89602 | -79.46515 | 2744 ft | 171 kts | 20° |
| 2026-04-22 03:27 | 8.90703 | -79.46127 | 2591 ft | 165 kts | 20° |
| 2026-04-22 03:28 | 8.91749 | -79.45756 | 2430 ft | 152 kts | 20° |
| 2026-04-22 03:28 | 8.92719 | -79.45412 | 2320 ft | 144 kts | 20° |
| 2026-04-22 03:28 | 8.93606 | -79.45096 | 2245 ft | 129 kts | 20° |
| 2026-04-22 03:28 | 8.94447 | -79.44798 | 2121 ft | 130 kts | 20° |
| 2026-04-22 03:29 | 8.95318 | -79.44488 | 2023 ft | 135 kts | 19° |
| 2026-04-22 03:29 | 8.96199 | -79.44141 | 1819 ft | 136 kts | 26° |
| 2026-04-22 03:29 | 8.97017 | -79.43684 | 1683 ft | 134 kts | 28° |
| 2026-04-22 03:29 | 8.97844 | -79.43210 | 1527 ft | 138 kts | 27° |
| 2026-04-22 03:30 | 8.98675 | -79.42734 | 1362 ft | 136 kts | 27° |
| 2026-04-22 03:30 | 8.99480 | -79.42275 | 1157 ft | 131 kts | 28° |
| 2026-04-22 03:30 | 9.00266 | -79.41826 | 1005 ft | 130 kts | 28° |
| 2026-04-22 03:30 | 9.01071 | -79.41369 | 867 ft | 135 kts | 29° |
| 2026-04-22 03:31 | 9.01893 | -79.40901 | 716 ft | 137 kts | 30° |
| 2026-04-22 03:31 | 9.02739 | -79.40433 | 547 ft | 139 kts | 30° |
| 2026-04-22 03:31 | 9.03592 | -79.39941 | 371 ft | 142 kts | 30° |
| 2026-04-22 03:31 | 9.04445 | -79.39449 | 177 ft | 143 kts | 31° |
| 2026-04-22 03:32 | 9.05310 | -79.38954 | 48 ft | 136 kts | 31° |
| 2026-04-22 03:32 | 9.06027 | -79.38542 | 46 ft | 97 kts | 29° |
| 2026-04-22 03:32 | 9.06371 | -79.38392 | 46 ft | 38 kts | 5° |
| 2026-04-22 03:32 | 9.06502 | -79.38385 | 46 ft | 10 kts | 359° |
| 2026-04-22 03:33 | 9.06569 | -79.38386 | 46 ft | 9 kts | 359° |
| 2026-04-22 03:33 | 9.06630 | -79.38398 | 48 ft | 9 kts | 310° |
| 2026-04-22 03:33 | 9.06667 | -79.38447 | 49 ft | 8 kts | 297° |
| 2026-04-22 03:33 | 9.06695 | -79.38499 | 50 ft | 9 kts | 300° |
| 2026-04-22 03:34 | 9.06728 | -79.38559 | 50 ft | 9 kts | 299° |
| 2026-04-22 03:34 | 9.06733 | -79.38568 | 50 ft | 1 kts | 299° |
| 2026-04-22 03:34 | 9.06733 | -79.38569 | 50 ft | 0 kts | 299° |